createdAt,value
2019-06-27T00:00:26.620Z,0
2019-06-27T00:01:07.187Z,0
2019-06-27T00:01:47.743Z,0
2019-06-27T00:02:28.348Z,0
2019-06-27T00:03:08.969Z,0
2019-06-27T00:03:49.544Z,0
2019-06-27T00:04:30.108Z,0
2019-06-27T00:05:10.672Z,0
2019-06-27T00:05:51.241Z,0
2019-06-27T00:06:31.807Z,0
2019-06-27T00:07:12.382Z,0
2019-06-27T00:07:52.937Z,0
2019-06-27T00:08:33.511Z,0
2019-06-27T00:09:14.088Z,0
2019-06-27T00:15:59.844Z,0
2019-06-27T00:16:40.426Z,0
2019-06-27T00:17:20.977Z,0
2019-06-27T00:18:01.549Z,0
2019-06-27T00:18:42.185Z,0
2019-06-27T00:19:22.755Z,0
2019-06-27T00:20:03.318Z,0
2019-06-27T00:20:43.885Z,0
2019-06-27T00:27:29.549Z,0
2019-06-27T00:28:10.098Z,0
2019-06-27T00:28:50.665Z,0
2019-06-27T00:29:31.545Z,0
2019-06-27T00:30:12.136Z,0
2019-06-27T00:30:52.713Z,0
2019-06-27T00:31:33.281Z,0
2019-06-27T00:32:13.842Z,0
2019-06-27T00:32:54.407Z,0
2019-06-27T00:38:59.547Z,0
2019-06-27T00:39:40.153Z,0
2019-06-27T00:40:20.777Z,0
2019-06-27T00:41:01.275Z,0
2019-06-27T00:41:41.863Z,0
2019-06-27T00:42:22.441Z,0
2019-06-27T00:43:03.029Z,0
2019-06-27T00:43:43.604Z,0
2019-06-27T00:44:24.163Z,0
2019-06-27T00:51:09.944Z,0
2019-06-27T00:51:50.524Z,0
2019-06-27T00:52:31.081Z,0
2019-06-27T00:53:11.635Z,0
2019-06-27T00:53:52.207Z,0
2019-06-27T00:54:32.741Z,0
2019-06-27T00:55:13.313Z,0
2019-06-27T00:55:53.908Z,0
2019-06-27T01:02:39.699Z,0
2019-06-27T01:03:20.272Z,0
2019-06-27T01:04:00.835Z,0
2019-06-27T01:04:41.382Z,0
2019-06-27T01:05:21.951Z,0
2019-06-27T01:06:02.509Z,0
2019-06-27T01:06:43.079Z,0
2019-06-27T01:07:23.642Z,0
2019-06-27T01:08:04.210Z,0
2019-06-27T01:14:49.873Z,0
2019-06-27T01:15:30.504Z,0
2019-06-27T01:16:11.053Z,0
2019-06-27T01:16:51.672Z,0
2019-06-27T01:17:32.242Z,0
2019-06-27T01:18:12.801Z,0
2019-06-27T01:18:53.375Z,0
2019-06-27T01:19:33.936Z,0
2019-06-27T01:26:19.622Z,0
2019-06-27T01:27:00.219Z,0
2019-06-27T01:27:40.847Z,0
2019-06-27T01:28:21.424Z,0
2019-06-27T01:29:02.140Z,0
2019-06-27T01:29:42.583Z,0
2019-06-27T01:30:23.149Z,0
2019-06-27T01:31:03.728Z,0
2019-06-27T01:31:44.295Z,0
2019-06-27T01:39:43.882Z,0
2019-06-27T01:40:24.446Z,0
2019-06-27T01:41:05.014Z,0
2019-06-27T01:41:45.553Z,0
2019-06-27T01:45:48.958Z,0
2019-06-27T01:46:29.511Z,0
2019-06-27T01:47:10.063Z,0
2019-06-27T01:47:50.645Z,0
2019-06-27T01:48:31.214Z,0
2019-06-27T01:49:11.778Z,0
2019-06-27T01:49:52.366Z,0
2019-06-27T01:50:32.921Z,0
2019-06-27T01:51:13.534Z,0
2019-06-27T01:57:18.669Z,0
2019-06-27T01:57:59.227Z,0
2019-06-27T01:58:39.862Z,0
2019-06-27T01:59:20.440Z,0
2019-06-27T02:00:01.029Z,0
2019-06-27T02:00:41.589Z,0
2019-06-27T02:01:22.195Z,0
2019-06-27T02:02:02.748Z,0
2019-06-27T02:02:43.318Z,0
2019-06-27T02:08:48.488Z,0
2019-06-27T02:09:29.048Z,0
2019-06-27T02:10:09.639Z,0
2019-06-27T02:10:50.194Z,0
2019-06-27T02:11:30.772Z,0
2019-06-27T02:12:11.351Z,0
2019-06-27T02:12:51.937Z,0
2019-06-27T02:13:32.559Z,0
2019-06-27T02:14:13.113Z,0
2019-06-27T02:20:58.972Z,0
2019-06-27T02:21:39.560Z,0
2019-06-27T02:22:20.140Z,0
2019-06-27T02:23:00.697Z,0
2019-06-27T02:23:41.268Z,0
2019-06-27T02:24:21.833Z,0
2019-06-27T02:25:02.400Z,0
2019-06-27T02:25:42.963Z,0
2019-06-27T02:32:28.735Z,0
2019-06-27T02:33:09.322Z,0
2019-06-27T02:33:49.844Z,0
2019-06-27T02:34:30.411Z,0
2019-06-27T02:35:10.962Z,0
2019-06-27T02:35:51.539Z,0
2019-06-27T02:36:32.085Z,0
2019-06-27T02:37:12.660Z,0
2019-06-27T02:37:53.231Z,0
2019-06-27T02:44:38.910Z,0
2019-06-27T02:45:19.478Z,0
2019-06-27T02:46:00.051Z,0
2019-06-27T02:46:40.632Z,0
2019-06-27T02:47:21.204Z,0
2019-06-27T02:48:01.789Z,0
2019-06-27T02:48:42.362Z,0
2019-06-27T02:49:22.906Z,0
2019-06-27T02:50:03.483Z,0
2019-06-27T02:56:08.617Z,5
2019-06-27T02:56:49.160Z,5
2019-06-27T02:57:29.728Z,5
2019-06-27T02:58:28.383Z,5
2019-06-27T02:58:50.850Z,5
2019-06-27T02:59:31.400Z,5
2019-06-27T03:00:11.979Z,5
2019-06-27T03:00:52.574Z,5
2019-06-27T03:01:33.126Z,5
2019-06-27T03:08:18.966Z,5
2019-06-27T03:08:59.581Z,5
2019-06-27T03:09:40.147Z,5
2019-06-27T03:10:20.723Z,5
2019-06-27T03:11:01.288Z,5
2019-06-27T03:11:41.865Z,5
2019-06-27T03:12:22.417Z,5
2019-06-27T03:13:02.957Z,5
2019-06-27T03:19:08.484Z,5
2019-06-27T03:19:49.067Z,10
2019-06-27T03:20:29.648Z,10
2019-06-27T03:21:10.261Z,10
2019-06-27T03:21:50.840Z,10
2019-06-27T03:22:31.442Z,10
2019-06-27T03:23:12.059Z,10
2019-06-27T03:23:52.703Z,10
2019-06-27T03:24:33.229Z,10
2019-06-27T03:30:38.887Z,10
2019-06-27T03:31:19.441Z,10
2019-06-27T03:32:00.018Z,10
2019-06-27T03:32:40.591Z,10
2019-06-27T03:33:21.181Z,10
2019-06-27T03:34:01.751Z,15
2019-06-27T03:34:42.330Z,10
2019-06-27T03:35:22.912Z,15
2019-06-27T03:36:03.562Z,15
2019-06-27T03:42:08.637Z,20
2019-06-27T03:42:49.238Z,20
2019-06-27T03:43:29.813Z,20
2019-06-27T03:44:10.461Z,20
2019-06-27T03:44:50.949Z,20
2019-06-27T03:45:31.528Z,20
2019-06-27T03:46:12.110Z,20
2019-06-27T03:46:52.687Z,20
2019-06-27T03:47:33.232Z,20
2019-06-27T03:53:38.428Z,30
2019-06-27T03:54:18.982Z,35
2019-06-27T03:54:59.559Z,35
2019-06-27T03:55:40.120Z,40
2019-06-27T03:56:20.706Z,35
2019-06-27T03:57:01.277Z,35
2019-06-27T03:57:44.842Z,35
2019-06-27T03:58:22.426Z,40
2019-06-27T03:59:11.951Z,40
2019-06-27T04:05:48.734Z,40
2019-06-27T04:06:29.298Z,35
2019-06-27T04:07:09.870Z,45
2019-06-27T04:07:50.465Z,50
2019-06-27T04:08:31.011Z,55
2019-06-27T04:09:11.584Z,55
2019-06-27T04:09:52.173Z,50
2019-06-27T04:10:32.764Z,50
2019-06-27T04:11:13.321Z,45
2019-06-27T04:17:18.581Z,50
2019-06-27T04:17:59.153Z,45
2019-06-27T04:18:39.766Z,40
2019-06-27T04:19:20.369Z,45
2019-06-27T04:20:00.926Z,50
2019-06-27T04:20:41.496Z,50
2019-06-27T04:21:22.074Z,50
2019-06-27T04:22:02.653Z,55
2019-06-27T04:22:43.259Z,55
2019-06-27T04:28:48.452Z,60
2019-06-27T04:29:33.767Z,60
2019-06-27T04:30:09.593Z,65
2019-06-27T04:30:50.153Z,85
2019-06-27T04:31:30.758Z,65
2019-06-27T04:32:11.286Z,70
2019-06-27T04:32:51.899Z,60
2019-06-27T04:33:32.506Z,50
2019-06-27T04:34:13.107Z,65
2019-06-27T04:40:58.953Z,90
2019-06-27T04:41:39.529Z,70
2019-06-27T04:42:20.098Z,60
2019-06-27T04:43:04.981Z,65
2019-06-27T04:43:41.284Z,70
2019-06-27T04:44:21.849Z,75
2019-06-27T04:45:02.441Z,75
2019-06-27T04:45:43.055Z,65
2019-06-27T04:52:28.844Z,60
2019-06-27T04:53:09.425Z,60
2019-06-27T04:53:49.992Z,70
2019-06-27T04:54:30.551Z,70
2019-06-27T04:55:11.106Z,70
2019-06-27T04:55:51.689Z,75
2019-06-27T04:56:32.273Z,100
2019-06-27T04:57:12.847Z,105
2019-06-27T04:57:53.401Z,110
2019-06-27T05:03:58.596Z,230
2019-06-27T05:04:39.158Z,260
2019-06-27T05:05:19.711Z,720
2019-06-27T05:06:00.277Z,995
2019-06-27T05:06:40.853Z,1350
2019-06-27T05:07:21.409Z,1550
2019-06-27T05:08:02.007Z,1380
2019-06-27T05:08:42.569Z,1615
2019-06-27T05:09:23.137Z,1465
2019-06-27T05:16:08.845Z,240
2019-06-27T05:16:49.404Z,610
2019-06-27T05:17:29.971Z,150
2019-06-27T05:18:10.523Z,150
2019-06-27T05:18:51.080Z,885
2019-06-27T05:19:31.644Z,145
2019-06-27T05:20:12.210Z,125
2019-06-27T05:20:52.778Z,130
2019-06-27T05:21:33.329Z,115
2019-06-27T05:27:38.573Z,1675
2019-06-27T05:28:19.126Z,245
2019-06-27T05:28:59.696Z,355
2019-06-27T05:29:40.536Z,905
2019-06-27T05:30:21.214Z,220
2019-06-27T05:31:01.689Z,1615
2019-06-27T05:31:42.276Z,1595
2019-06-27T05:32:22.857Z,1660
2019-06-27T05:33:03.422Z,1625
2019-06-27T05:39:08.587Z,1670
2019-06-27T05:39:49.160Z,1730
2019-06-27T05:40:29.834Z,365
2019-06-27T05:41:10.395Z,1960
2019-06-27T05:41:50.959Z,1935
2019-06-27T05:42:31.525Z,1830
2019-06-27T05:43:12.158Z,1245
2019-06-27T05:43:52.749Z,320
2019-06-27T05:44:33.340Z,1805
2019-06-27T05:50:38.526Z,910
2019-06-27T05:51:19.103Z,1910
2019-06-27T05:51:59.665Z,1915
2019-06-27T05:52:40.287Z,1110
2019-06-27T05:53:20.867Z,1335
2019-06-27T05:54:01.464Z,1895
2019-06-27T05:54:42.004Z,1775
2019-06-27T05:55:22.598Z,1750
2019-06-27T05:56:03.176Z,1865
2019-06-27T06:02:48.911Z,1600
2019-06-27T06:03:29.703Z,1670
2019-06-27T06:04:10.290Z,1825
2019-06-27T06:04:50.875Z,1780
2019-06-27T06:05:31.521Z,1940
2019-06-27T06:06:12.278Z,2055
2019-06-27T06:06:52.844Z,2045
2019-06-27T06:07:33.447Z,2050
2019-06-27T06:13:38.713Z,1995
2019-06-27T06:14:19.269Z,2075
2019-06-27T06:14:59.872Z,1995
2019-06-27T06:15:40.517Z,1790
2019-06-27T06:16:21.138Z,1755
2019-06-27T06:17:01.780Z,1805
2019-06-27T06:17:42.413Z,1955
2019-06-27T06:18:22.990Z,2010
2019-06-27T06:25:08.887Z,1940
2019-06-27T06:25:49.487Z,2040
2019-06-27T06:26:30.055Z,1990
2019-06-27T06:30:09.465Z,2010
2019-06-27T06:30:50.075Z,2085
2019-06-27T06:31:30.599Z,2005
2019-06-27T06:32:11.163Z,1995
2019-06-27T06:37:08.082Z,2025
2019-06-27T06:37:47.525Z,2015
2019-06-27T06:38:28.109Z,1960
2019-06-27T06:39:08.753Z,1985
2019-06-27T06:42:31.789Z,1930
2019-06-27T06:43:12.414Z,1990
2019-06-27T06:43:53.038Z,1995
2019-06-27T06:44:33.584Z,1980
2019-06-27T06:45:14.362Z,2035
2019-06-27T06:45:55.019Z,2020
2019-06-27T06:46:35.624Z,2075
2019-06-27T06:47:16.364Z,2105
2019-06-27T06:53:21.734Z,1970
2019-06-27T06:54:02.581Z,1950
2019-06-27T06:54:43.051Z,2055
2019-06-27T06:55:23.702Z,2045
2019-06-27T06:56:04.473Z,2010
2019-06-27T06:56:45.130Z,2025
2019-06-27T06:57:25.835Z,2015
2019-06-27T06:58:06.534Z,1980
2019-06-27T07:04:12.094Z,2000
2019-06-27T07:04:52.861Z,1895
2019-06-27T07:05:33.317Z,1860
2019-06-27T07:06:14.075Z,1810
2019-06-27T07:06:54.686Z,1850
2019-06-27T07:07:35.306Z,1840
2019-06-27T07:08:15.940Z,1775
2019-06-27T07:08:56.556Z,1620
2019-06-27T07:14:21.973Z,940
2019-06-27T07:15:02.506Z,900
2019-06-27T07:15:43.099Z,855
2019-06-27T07:16:23.674Z,805
2019-06-27T07:17:04.272Z,775
2019-06-27T07:17:44.913Z,745
2019-06-27T07:18:25.563Z,705
2019-06-27T07:19:06.109Z,690
2019-06-27T07:25:02.988Z,600
2019-06-27T07:25:43.545Z,590
2019-06-27T07:26:24.112Z,585
2019-06-27T07:27:04.681Z,575
2019-06-27T07:30:27.586Z,560
2019-06-27T07:31:17.056Z,560
2019-06-27T07:31:48.730Z,555
2019-06-27T07:32:29.310Z,550
2019-06-27T07:33:10.383Z,555
2019-06-27T07:33:50.500Z,550
2019-06-27T07:34:31.181Z,550
2019-06-27T07:35:11.774Z,550
2019-06-27T07:35:52.373Z,545
2019-06-27T07:41:57.809Z,530
2019-06-27T07:42:38.378Z,530
2019-06-27T07:43:18.983Z,535
2019-06-27T07:43:59.611Z,535
2019-06-27T07:44:40.198Z,540
2019-06-27T07:45:20.783Z,540
2019-06-27T07:46:01.507Z,545
2019-06-27T07:46:41.984Z,545
2019-06-27T07:47:22.573Z,555
2019-06-27T07:52:47.561Z,560
2019-06-27T07:53:28.209Z,545
2019-06-27T07:54:08.767Z,540
2019-06-27T07:54:49.396Z,540
2019-06-27T07:55:30.062Z,545
2019-06-27T07:56:10.707Z,540
2019-06-27T07:56:51.309Z,540
2019-06-27T07:57:31.868Z,535
2019-06-27T07:58:12.464Z,525
2019-06-27T08:04:17.899Z,340
2019-06-27T08:04:58.521Z,330
2019-06-27T08:05:39.129Z,325
2019-06-27T08:06:19.708Z,325
2019-06-27T08:07:00.376Z,320
2019-06-27T08:07:41.228Z,315
2019-06-27T08:08:21.979Z,315
2019-06-27T08:14:27.593Z,310
2019-06-27T08:15:08.202Z,305
2019-06-27T08:15:48.824Z,300
2019-06-27T08:16:29.413Z,295
2019-06-27T08:17:09.984Z,295
2019-06-27T08:17:50.669Z,290
2019-06-27T08:18:31.285Z,285
2019-06-27T08:19:11.911Z,285
2019-06-27T08:19:52.550Z,280
2019-06-27T08:25:58.013Z,245
2019-06-27T08:26:38.606Z,235
2019-06-27T08:27:19.220Z,240
2019-06-27T08:27:59.838Z,235
2019-06-27T08:28:40.461Z,230
2019-06-27T08:29:21.252Z,230
2019-06-27T08:30:02.183Z,230
2019-06-27T08:36:08.043Z,205
2019-06-27T08:36:48.669Z,190
2019-06-27T08:37:29.417Z,200
2019-06-27T08:38:10.500Z,185
2019-06-27T08:38:51.205Z,195
2019-06-27T08:39:31.964Z,185
2019-06-27T08:45:37.866Z,165
2019-06-27T08:46:18.450Z,175
2019-06-27T08:46:59.066Z,160
2019-06-27T08:47:39.662Z,165
2019-06-27T08:48:20.214Z,160
2019-06-27T08:49:00.799Z,150
2019-06-27T08:49:41.386Z,165
2019-06-27T08:50:21.992Z,150
2019-06-27T08:51:02.588Z,150
2019-06-27T08:57:07.924Z,135
2019-06-27T08:57:48.790Z,135
2019-06-27T08:58:29.352Z,135
2019-06-27T08:59:09.937Z,130
2019-06-27T08:59:50.542Z,130
2019-06-27T09:00:31.148Z,130
2019-06-27T09:01:11.803Z,130
2019-06-27T09:02:07.211Z,125
2019-06-27T09:07:57.836Z,125
2019-06-27T09:08:38.367Z,125
2019-06-27T09:09:18.960Z,125
2019-06-27T09:09:59.538Z,120
2019-06-27T09:10:40.149Z,125
2019-06-27T09:11:20.800Z,120
2019-06-27T09:12:01.414Z,125
2019-06-27T09:12:42.047Z,120
2019-06-27T09:19:28.041Z,115
2019-06-27T09:20:08.693Z,115
2019-06-27T09:20:49.298Z,115
2019-06-27T09:21:29.929Z,115
2019-06-27T09:22:10.510Z,115
2019-06-27T09:22:51.093Z,115
2019-06-27T09:23:31.788Z,115
2019-06-27T09:24:12.304Z,110
2019-06-27T09:30:17.738Z,110
2019-06-27T09:30:58.337Z,110
2019-06-27T09:31:38.965Z,110
2019-06-27T09:32:25.160Z,110
2019-06-27T09:33:00.161Z,110
2019-06-27T09:33:40.871Z,110
2019-06-27T09:34:21.657Z,105
2019-06-27T09:35:01.951Z,110
2019-06-27T09:35:42.559Z,105
2019-06-27T09:41:47.876Z,105
2019-06-27T09:42:28.437Z,105
2019-06-27T09:43:09.013Z,105
2019-06-27T09:43:49.604Z,105
2019-06-27T09:44:30.291Z,105
2019-06-27T09:45:10.879Z,105
2019-06-27T09:45:51.453Z,105
2019-06-27T09:46:32.025Z,105
2019-06-27T09:47:12.602Z,105
2019-06-27T09:53:17.976Z,105
2019-06-27T09:53:58.548Z,105
2019-06-27T09:54:39.120Z,105
2019-06-27T09:55:19.716Z,105
2019-06-27T09:56:00.459Z,105
2019-06-27T09:56:40.920Z,105
2019-06-27T09:57:21.488Z,105
2019-06-27T09:58:02.101Z,105
2019-06-27T10:04:47.939Z,100
2019-06-27T10:05:28.593Z,100
2019-06-27T10:06:09.248Z,100
2019-06-27T10:06:49.840Z,100
2019-06-27T10:07:30.558Z,100
2019-06-27T10:08:11.153Z,100
2019-06-27T10:08:51.861Z,100
2019-06-27T10:09:32.441Z,100
2019-06-27T10:14:57.641Z,100
2019-06-27T10:15:38.214Z,95
2019-06-27T10:16:18.911Z,95
2019-06-27T10:16:59.533Z,95
2019-06-27T10:17:40.166Z,95
2019-06-27T10:18:20.780Z,95
2019-06-27T10:19:01.427Z,95
2019-06-27T10:19:42.006Z,95
2019-06-27T10:20:22.616Z,95
2019-06-27T10:25:47.719Z,95
2019-06-27T10:26:28.336Z,95
2019-06-27T10:27:08.924Z,95
2019-06-27T10:27:49.655Z,95
2019-06-27T10:28:30.360Z,95
2019-06-27T10:29:11.016Z,95
2019-06-27T10:29:51.978Z,95
2019-06-27T10:30:32.770Z,95
2019-06-27T10:35:58.149Z,90
2019-06-27T10:36:38.954Z,90
2019-06-27T10:37:19.787Z,90
2019-06-27T10:38:00.468Z,90
2019-06-27T10:38:41.071Z,90
2019-06-27T10:39:21.703Z,90
2019-06-27T10:40:02.657Z,90
2019-06-27T10:44:47.536Z,90
2019-06-27T10:45:28.246Z,90
2019-06-27T10:46:08.824Z,90
2019-06-27T10:46:49.449Z,90
2019-06-27T10:47:30.090Z,90
2019-06-27T10:48:10.663Z,85
2019-06-27T10:48:51.425Z,85
2019-06-27T10:49:32.092Z,85
2019-06-27T10:50:12.585Z,85
2019-06-27T10:56:17.851Z,85
2019-06-27T10:56:58.429Z,85
2019-06-27T10:57:39.121Z,85
2019-06-27T10:58:19.686Z,85
2019-06-27T10:59:00.273Z,85
2019-06-27T10:59:40.831Z,85
2019-06-27T11:00:21.405Z,85
2019-06-27T11:01:02.066Z,85
2019-06-27T11:01:42.623Z,85
2019-06-27T11:07:07.610Z,85
2019-06-27T11:07:48.176Z,85
2019-06-27T11:08:28.756Z,85
2019-06-27T11:09:09.419Z,85
2019-06-27T11:09:50.366Z,85
2019-06-27T11:10:30.564Z,85
2019-06-27T11:11:11.136Z,85
2019-06-27T11:11:51.710Z,85
2019-06-27T11:12:32.289Z,85
2019-06-27T11:18:37.698Z,80
2019-06-27T11:19:18.207Z,80
2019-06-27T11:19:58.792Z,80
2019-06-27T11:20:39.358Z,80
2019-06-27T11:21:19.976Z,80
2019-06-27T11:22:00.542Z,80
2019-06-27T11:22:41.137Z,80
2019-06-27T11:23:21.691Z,80
2019-06-27T11:24:02.271Z,80
2019-06-27T11:33:49.055Z,80
2019-06-27T11:34:29.675Z,80
2019-06-27T11:35:10.263Z,80
2019-06-27T11:35:50.858Z,80
2019-06-27T11:39:13.824Z,80
2019-06-27T11:39:54.405Z,80
2019-06-27T11:40:34.968Z,80
2019-06-27T11:41:18.117Z,85
2019-06-27T11:48:04.174Z,85
2019-06-27T11:48:44.778Z,85
2019-06-27T11:49:25.374Z,85
2019-06-27T11:53:04.772Z,85
2019-06-27T11:53:45.450Z,85
2019-06-27T11:54:26.013Z,85
2019-06-27T11:55:06.754Z,85
2019-06-27T11:57:49.389Z,90
2019-06-27T11:58:29.990Z,90
2019-06-27T11:59:10.605Z,90
2019-06-27T11:59:51.741Z,90
2019-06-27T12:00:32.445Z,90
2019-06-27T12:01:13.138Z,90
2019-06-27T12:01:53.744Z,90
2019-06-27T12:02:34.335Z,90
2019-06-27T12:07:59.468Z,90
2019-06-27T12:08:40.098Z,90
2019-06-27T12:09:20.723Z,90
2019-06-27T12:10:01.302Z,90
2019-06-27T12:10:41.890Z,90
2019-06-27T12:11:22.531Z,90
2019-06-27T12:12:03.189Z,90
2019-06-27T12:12:43.748Z,90
2019-06-27T12:13:24.366Z,95
2019-06-27T12:18:49.617Z,95
2019-06-27T12:19:30.630Z,95
2019-06-27T12:20:11.286Z,95
2019-06-27T12:20:52.085Z,95
2019-06-27T12:21:32.770Z,95
2019-06-27T12:22:13.372Z,95
2019-06-27T12:22:54.037Z,95
2019-06-27T12:28:59.747Z,95
2019-06-27T12:29:40.404Z,95
2019-06-27T12:30:21.034Z,95
2019-06-27T12:31:10.240Z,95
2019-06-27T12:31:42.295Z,95
2019-06-27T12:32:22.911Z,95
2019-06-27T12:33:03.589Z,95
2019-06-27T12:33:44.183Z,100
2019-06-27T12:39:49.592Z,100
2019-06-27T12:40:30.169Z,100
2019-06-27T12:44:10.858Z,100
2019-06-27T12:44:51.438Z,100
2019-06-27T12:45:32.018Z,100
2019-06-27T12:46:12.620Z,100
2019-06-27T12:49:49.971Z,105
2019-06-27T12:50:16.444Z,105
2019-06-27T12:50:57.176Z,105
2019-06-27T12:53:25.306Z,105
2019-06-27T12:54:05.910Z,105
2019-06-27T12:54:46.486Z,105
2019-06-27T12:55:27.046Z,105
2019-06-27T12:58:50.082Z,105
2019-06-27T12:59:30.632Z,105
2019-06-27T13:00:11.215Z,105
2019-06-27T13:00:51.772Z,105
2019-06-27T13:01:32.370Z,105
2019-06-27T13:02:12.893Z,105
2019-06-27T13:02:53.443Z,105
2019-06-27T13:03:34.019Z,105
2019-06-27T13:04:23.137Z,105
2019-06-27T13:10:19.972Z,110
2019-06-27T13:11:00.544Z,110
2019-06-27T13:11:41.141Z,110
2019-06-27T13:12:21.728Z,110
2019-06-27T13:13:02.326Z,110
2019-06-27T13:13:42.902Z,110
2019-06-27T13:14:23.450Z,110
2019-06-27T13:15:04.050Z,110
2019-06-27T13:15:44.611Z,110
2019-06-27T13:22:30.394Z,115
2019-06-27T13:23:11.063Z,115
2019-06-27T13:23:51.542Z,115
2019-06-27T13:24:32.101Z,115
2019-06-27T13:25:12.683Z,120
2019-06-27T13:25:53.259Z,115
2019-06-27T13:26:33.829Z,115
2019-06-27T13:27:14.418Z,115
2019-06-27T13:34:00.337Z,115
2019-06-27T13:34:41.159Z,115
2019-06-27T13:35:21.439Z,115
2019-06-27T13:36:01.982Z,120
2019-06-27T13:36:42.559Z,115
2019-06-27T13:37:23.138Z,115
2019-06-27T13:38:03.746Z,115
2019-06-27T13:38:44.308Z,115
2019-06-27T13:39:24.910Z,115
2019-06-27T13:45:30.077Z,115
2019-06-27T13:46:10.654Z,115
2019-06-27T13:46:51.242Z,115
2019-06-27T13:47:31.826Z,115
2019-06-27T13:48:12.408Z,115
2019-06-27T13:48:52.950Z,115
2019-06-27T13:49:33.512Z,120
2019-06-27T13:50:14.085Z,115
2019-06-27T13:50:57.611Z,120
2019-06-27T13:57:40.374Z,120
2019-06-27T13:58:20.959Z,120
2019-06-27T13:59:01.573Z,120
2019-06-27T13:59:42.142Z,120
2019-06-27T14:00:22.699Z,120
2019-06-27T14:01:03.255Z,120
2019-06-27T14:01:43.861Z,120
2019-06-27T14:02:24.428Z,120
2019-06-27T14:09:22.157Z,120
2019-06-27T14:09:53.917Z,120
2019-06-27T14:10:31.361Z,120
2019-06-27T14:11:11.907Z,125
2019-06-27T14:11:52.545Z,125
2019-06-27T14:12:33.078Z,125
2019-06-27T14:13:13.640Z,125
2019-06-27T14:13:54.229Z,125
2019-06-27T14:14:34.781Z,125
2019-06-27T14:20:00.098Z,125
2019-06-27T14:20:40.671Z,125
2019-06-27T14:21:21.248Z,125
2019-06-27T14:22:01.814Z,125
2019-06-27T14:22:42.400Z,125
2019-06-27T14:23:22.976Z,125
2019-06-27T14:24:03.597Z,125
2019-06-27T14:24:44.134Z,125
2019-06-27T14:25:24.706Z,125
2019-06-27T14:31:29.874Z,130
2019-06-27T14:32:10.435Z,125
2019-06-27T14:32:53.386Z,130
2019-06-27T14:33:31.562Z,130
2019-06-27T14:34:12.125Z,130
2019-06-27T14:34:52.667Z,130
2019-06-27T14:35:33.216Z,130
2019-06-27T14:36:13.788Z,130
2019-06-27T14:36:54.590Z,130
2019-06-27T14:42:59.825Z,130
2019-06-27T14:43:40.415Z,130
2019-06-27T14:44:20.992Z,130
2019-06-27T14:45:01.534Z,130
2019-06-27T14:45:42.123Z,130
2019-06-27T14:46:22.688Z,130
2019-06-27T14:47:03.294Z,130
2019-06-27T14:47:43.868Z,135
2019-06-27T14:48:24.467Z,135
2019-06-27T14:55:10.156Z,130
2019-06-27T14:55:50.773Z,135
2019-06-27T14:56:31.341Z,130
2019-06-27T14:57:11.925Z,130
2019-06-27T14:57:52.518Z,130
2019-06-27T14:58:33.617Z,135
2019-06-27T14:59:14.588Z,130
2019-06-27T14:59:54.262Z,130
2019-06-27T15:00:34.844Z,135
2019-06-27T15:06:40.081Z,135
2019-06-27T15:07:20.659Z,135
2019-06-27T15:08:01.215Z,135
2019-06-27T15:08:41.778Z,135
2019-06-27T15:09:22.355Z,135
2019-06-27T15:10:02.911Z,135
2019-06-27T15:10:43.478Z,135
2019-06-27T15:11:24.025Z,130
2019-06-27T15:12:04.620Z,130
2019-06-27T15:18:09.828Z,130
2019-06-27T15:18:50.390Z,130
2019-06-27T15:19:30.987Z,130
2019-06-27T15:20:11.536Z,135
2019-06-27T15:20:52.105Z,130
2019-06-27T15:21:32.749Z,130
2019-06-27T15:22:13.326Z,130
2019-06-27T15:22:53.890Z,130
2019-06-27T15:23:34.461Z,130
2019-06-27T15:30:20.161Z,125
2019-06-27T15:31:00.734Z,125
2019-06-27T15:31:41.361Z,125
2019-06-27T15:32:21.890Z,125
2019-06-27T15:33:02.489Z,125
2019-06-27T15:33:43.031Z,125
2019-06-27T15:34:23.633Z,125
2019-06-27T15:35:04.180Z,125
2019-06-27T15:35:52.110Z,125
2019-06-27T15:41:49.917Z,125
2019-06-27T15:42:30.481Z,125
2019-06-27T15:43:11.077Z,120
2019-06-27T15:43:51.671Z,120
2019-06-27T15:44:32.222Z,125
2019-06-27T15:45:12.780Z,125
2019-06-27T15:45:53.391Z,120
2019-06-27T15:46:33.932Z,120
2019-06-27T15:47:14.530Z,120
2019-06-27T15:54:00.242Z,125
2019-06-27T15:54:40.880Z,125
2019-06-27T15:55:21.437Z,120
2019-06-27T15:56:02.030Z,120
2019-06-27T15:56:42.622Z,120
2019-06-27T15:57:23.206Z,120
2019-06-27T15:58:03.754Z,120
2019-06-27T15:58:44.339Z,120
2019-06-27T16:05:30.212Z,115
2019-06-27T16:06:14.609Z,115
2019-06-27T16:06:51.225Z,115
2019-06-27T16:07:31.796Z,115
2019-06-27T16:08:12.365Z,115
2019-06-27T16:08:52.930Z,115
2019-06-27T16:09:33.495Z,110
2019-06-27T16:10:14.085Z,110
2019-06-27T16:10:54.642Z,110
2019-06-27T16:16:59.894Z,110
2019-06-27T16:17:40.481Z,115
2019-06-27T16:18:21.057Z,115
2019-06-27T16:19:01.625Z,115
2019-06-27T16:19:42.175Z,115
2019-06-27T16:20:22.738Z,115
2019-06-27T16:21:03.291Z,110
2019-06-27T16:21:43.862Z,110
2019-06-27T16:22:24.452Z,110
2019-06-27T16:29:10.221Z,105
2019-06-27T16:29:50.785Z,110
2019-06-27T16:30:31.385Z,105
2019-06-27T16:31:11.959Z,105
2019-06-27T16:31:52.531Z,105
2019-06-27T16:32:33.118Z,105
2019-06-27T16:33:13.674Z,105
2019-06-27T16:33:54.305Z,105
2019-06-27T16:40:40.059Z,100
2019-06-27T16:41:20.616Z,100
2019-06-27T16:42:01.196Z,100
2019-06-27T16:42:41.769Z,100
2019-06-27T16:43:22.337Z,100
2019-06-27T16:44:02.909Z,100
2019-06-27T16:44:43.530Z,100
2019-06-27T16:45:24.171Z,100
2019-06-27T16:46:04.745Z,100
2019-06-27T16:52:09.978Z,95
2019-06-27T16:52:50.530Z,95
2019-06-27T16:53:31.150Z,95
2019-06-27T16:54:11.718Z,90
2019-06-27T16:54:52.273Z,90
2019-06-27T16:55:32.855Z,90
2019-06-27T16:56:13.427Z,90
2019-06-27T16:56:53.989Z,90
2019-06-27T16:57:34.560Z,90
2019-06-27T17:04:20.347Z,85
2019-06-27T17:05:00.924Z,85
2019-06-27T17:05:41.472Z,85
2019-06-27T17:06:22.029Z,85
2019-06-27T17:07:02.590Z,85
2019-06-27T17:07:43.251Z,80
2019-06-27T17:08:23.832Z,80
2019-06-27T17:09:04.413Z,80
2019-06-27T17:15:50.214Z,75
2019-06-27T17:16:30.725Z,75
2019-06-27T17:17:11.306Z,75
2019-06-27T17:17:51.888Z,75
2019-06-27T17:18:32.493Z,75
2019-06-27T17:19:13.095Z,75
2019-06-27T17:19:53.695Z,75
2019-06-27T17:20:34.296Z,75
2019-06-27T17:21:14.867Z,75
2019-06-27T17:27:20.136Z,70
2019-06-27T17:28:00.779Z,70
2019-06-27T17:28:41.337Z,65
2019-06-27T17:29:21.944Z,65
2019-06-27T17:30:02.857Z,65
2019-06-27T17:30:43.366Z,65
2019-06-27T17:31:23.974Z,65
2019-06-27T17:32:06.439Z,65
2019-06-27T17:38:50.328Z,65
2019-06-27T17:39:30.942Z,65
2019-06-27T17:40:11.585Z,65
2019-06-27T17:40:52.199Z,65
2019-06-27T17:41:32.728Z,65
2019-06-27T17:42:13.358Z,60
2019-06-27T17:42:53.978Z,60
2019-06-27T17:43:34.563Z,60
2019-06-27T17:50:20.309Z,55
2019-06-27T17:51:00.877Z,55
2019-06-27T17:51:41.489Z,55
2019-06-27T17:52:22.083Z,55
2019-06-27T17:53:02.657Z,55
2019-06-27T17:53:43.228Z,55
2019-06-27T17:54:23.777Z,55
2019-06-27T17:55:04.384Z,50
2019-06-27T18:01:50.189Z,45
2019-06-27T18:02:30.787Z,45
2019-06-27T18:03:11.367Z,45
2019-06-27T18:03:51.979Z,45
2019-06-27T18:04:32.550Z,45
2019-06-27T18:05:13.129Z,45
2019-06-27T18:05:53.733Z,45
2019-06-27T18:06:34.297Z,45
2019-06-27T18:07:15.284Z,45
2019-06-27T18:13:20.052Z,40
2019-06-27T18:14:00.682Z,40
2019-06-27T18:14:41.292Z,40
2019-06-27T18:15:21.859Z,40
2019-06-27T18:16:02.457Z,40
2019-06-27T18:16:43.128Z,40
2019-06-27T18:17:32.790Z,35
2019-06-27T18:18:04.191Z,35
2019-06-27T18:18:44.821Z,35
2019-06-27T18:24:50.010Z,30
2019-06-27T18:25:30.598Z,30
2019-06-27T18:26:11.198Z,30
2019-06-27T18:26:51.828Z,30
2019-06-27T18:27:32.416Z,30
2019-06-27T18:28:12.998Z,30
2019-06-27T18:28:53.550Z,30
2019-06-27T18:29:34.127Z,30
2019-06-27T18:30:14.702Z,30
2019-06-27T18:36:20.048Z,25
2019-06-27T18:37:00.647Z,25
2019-06-27T18:37:41.204Z,25
2019-06-27T18:38:21.821Z,25
2019-06-27T18:39:02.415Z,25
2019-06-27T18:39:42.993Z,20
2019-06-27T18:40:23.561Z,20
2019-06-27T18:41:04.123Z,20
2019-06-27T18:41:44.707Z,20
2019-06-27T18:49:42.641Z,15
2019-06-27T18:50:23.223Z,15
2019-06-27T18:51:03.770Z,15